createdAt,value
2023-03-22T00:01:19.864Z,48.47
2023-03-22T00:03:48.198Z,49.05
2023-03-22T00:06:16.871Z,48.66
2023-03-22T00:08:45.454Z,47.38
2023-03-22T00:11:13.742Z,45.37
2023-03-22T00:13:42.990Z,46.14
2023-03-22T00:16:13.975Z,45.19
2023-03-22T00:18:42.963Z,45.94
2023-03-22T00:21:13.309Z,48.29
2023-03-22T00:23:41.778Z,46.44
2023-03-22T00:26:09.836Z,46.07
2023-03-22T00:28:38.790Z,45.63
2023-03-22T00:31:07.906Z,46.65
2023-03-22T00:33:37.257Z,45.49
2023-03-22T00:36:07.527Z,46.13
2023-03-22T00:38:42.979Z,45.45
2023-03-22T00:41:13.697Z,46.30
2023-03-22T00:43:43.613Z,46.24
2023-03-22T00:46:12.508Z,46.57
2023-03-22T00:48:41.934Z,48.19
2023-03-22T00:51:11.336Z,46.45
2023-03-22T00:53:42.589Z,46.74
2023-03-22T00:56:13.968Z,47.35
2023-03-22T00:58:50.312Z,47.04
2023-03-22T01:01:18.246Z,47.64
2023-03-22T01:03:49.830Z,46.35
2023-03-22T01:06:17.990Z,47.43
2023-03-22T01:08:46.696Z,46.76
2023-03-22T01:11:18.204Z,47.97
2023-03-22T01:13:47.964Z,46.08
2023-03-22T01:16:16.145Z,45.76
2023-03-22T01:18:44.501Z,46.79
2023-03-22T01:21:13.802Z,47.29
2023-03-22T01:23:42.086Z,46.03
2023-03-22T01:26:10.198Z,46.68
2023-03-22T01:28:40.487Z,46.58
2023-03-22T01:31:08.864Z,46.46
2023-03-22T01:33:36.818Z,46.25
2023-03-22T01:36:05.361Z,47.66
2023-03-22T01:38:36.997Z,46.71
2023-03-22T01:41:05.198Z,46.46
2023-03-22T01:43:37.158Z,46.88
2023-03-22T01:46:05.648Z,46.83
2023-03-22T01:48:38.629Z,46.21
2023-03-22T01:51:10.959Z,45.48
2023-03-22T01:53:55.687Z,45.57
2023-03-22T01:56:26.475Z,46.15
2023-03-22T01:58:56.046Z,46.19
2023-03-22T02:01:31.991Z,47.11
2023-03-22T02:04:07.113Z,48.17
2023-03-22T02:06:38.125Z,47.40
2023-03-22T02:09:18.200Z,45.58
2023-03-22T02:11:52.327Z,47.33
2023-03-22T02:14:45.041Z,47.80
2023-03-22T02:17:38.687Z,48.04
2023-03-22T02:20:47.102Z,48.07
2023-03-22T02:23:48.356Z,48.33
2023-03-22T02:26:46.935Z,47.54
2023-03-22T02:29:22.974Z,46.85
2023-03-22T02:32:32.721Z,47.71
2023-03-22T02:35:26.831Z,46.99
2023-03-22T02:38:21.007Z,45.18
2023-03-22T02:40:55.131Z,45.79
2023-03-22T02:43:38.253Z,45.23
2023-03-22T02:46:11.119Z,44.66
2023-03-22T02:48:45.938Z,45.56
2023-03-22T02:51:20.183Z,46.34
2023-03-22T02:53:55.497Z,45.23
2023-03-22T02:56:28.373Z,45.82
2023-03-22T02:59:00.922Z,46.85
2023-03-22T03:01:32.699Z,45.46
2023-03-22T03:04:04.826Z,45.03
2023-03-22T03:06:38.909Z,46.30
2023-03-22T03:09:08.938Z,46.14
2023-03-22T03:11:38.123Z,46.25
2023-03-22T03:14:06.178Z,47.29
2023-03-22T03:16:36.690Z,46.86
2023-03-22T03:19:13.602Z,48.46
2023-03-22T03:21:50.209Z,47.49
2023-03-22T03:24:28.160Z,46.65
2023-03-22T03:27:03.161Z,46.43
2023-03-22T03:29:38.837Z,46.08
2023-03-22T03:32:12.793Z,47.92
2023-03-22T03:34:49.461Z,47.75
2023-03-22T03:37:21.873Z,47.52
2023-03-22T03:39:53.931Z,46.69
2023-03-22T03:42:26.257Z,45.91
2023-03-22T03:44:54.520Z,46.08
2023-03-22T03:47:24.359Z,47.61
2023-03-22T03:49:52.373Z,47.85
2023-03-22T03:52:24.521Z,46.77
2023-03-22T03:54:52.667Z,46.75
2023-03-22T03:57:28.704Z,46.07
2023-03-22T03:59:56.574Z,46.18
2023-03-22T04:02:41.801Z,45.42
2023-03-22T04:05:18.496Z,47.52
2023-03-22T04:07:46.690Z,46.55
2023-03-22T04:10:14.800Z,46.24
2023-03-22T04:12:43.977Z,46.27
2023-03-22T04:15:18.324Z,45.91
2023-03-22T04:17:53.736Z,46.21
2023-03-22T04:20:26.194Z,46.62
2023-03-22T04:22:54.290Z,45.52
2023-03-22T04:25:22.884Z,46.92
2023-03-22T04:28:04.294Z,45.66
2023-03-22T04:30:36.160Z,46.06
2023-03-22T04:33:32.606Z,45.60
2023-03-22T04:36:15.902Z,44.48
2023-03-22T04:38:59.826Z,45.30
2023-03-22T04:41:29.014Z,46.06
2023-03-22T04:44:03.377Z,45.58
2023-03-22T04:46:34.470Z,45.88
2023-03-22T04:49:06.465Z,45.00
2023-03-22T04:51:38.322Z,45.51
2023-03-22T04:54:18.726Z,45.51
2023-03-22T04:56:46.952Z,44.99
2023-03-22T04:59:20.233Z,46.09
2023-03-22T05:01:50.008Z,45.73
2023-03-22T05:04:21.429Z,45.17
2023-03-22T05:06:53.325Z,45.24
2023-03-22T05:09:27.485Z,44.65
2023-03-22T05:11:55.896Z,46.33
2023-03-22T05:14:43.663Z,45.49
2023-03-22T05:17:13.714Z,46.50
2023-03-22T05:19:42.092Z,49.11
2023-03-22T05:22:12.018Z,47.81
2023-03-22T05:24:45.529Z,47.39
2023-03-22T05:27:31.599Z,47.23
2023-03-22T05:30:19.854Z,47.39
2023-03-22T05:32:59.696Z,47.51
2023-03-22T05:35:27.943Z,46.41
2023-03-22T05:37:58.157Z,47.12
2023-03-22T05:40:29.249Z,47.75
2023-03-22T05:42:57.372Z,47.19
2023-03-22T05:45:28.959Z,46.01
2023-03-22T05:48:10.476Z,45.54
2023-03-22T05:50:38.913Z,47.07
2023-03-22T05:53:07.623Z,46.25
2023-03-22T05:55:48.574Z,46.06
2023-03-22T05:58:18.997Z,46.45
2023-03-22T06:00:51.452Z,47.04
2023-03-22T06:03:22.416Z,46.96
2023-03-22T06:06:10.677Z,46.51
2023-03-22T06:08:45.268Z,45.19
2023-03-22T06:11:13.861Z,48.01
2023-03-22T06:13:42.048Z,48.28
2023-03-22T06:16:13.902Z,48.02
2023-03-22T06:18:43.759Z,47.45
2023-03-22T06:21:13.576Z,47.34
2023-03-22T06:23:41.448Z,47.24
2023-03-22T06:26:11.496Z,47.65
2023-03-22T06:28:41.257Z,47.47
2023-03-22T06:31:11.013Z,48.42
2023-03-22T06:33:49.477Z,46.40
2023-03-22T06:36:28.502Z,44.80
2023-03-22T06:39:06.568Z,46.04
2023-03-22T06:41:35.091Z,45.66
2023-03-22T06:44:03.669Z,46.37
2023-03-22T06:47:03.867Z,45.22
2023-03-22T06:49:46.638Z,45.38
2023-03-22T06:52:25.674Z,45.27
2023-03-22T06:54:54.018Z,44.41
2023-03-22T06:57:22.017Z,44.32
2023-03-22T06:59:50.060Z,44.44
2023-03-22T07:02:18.054Z,43.81
2023-03-22T07:05:08.215Z,44.84
2023-03-22T07:07:36.297Z,44.16
2023-03-22T07:10:05.513Z,45.31
2023-03-22T07:12:33.949Z,44.46
2023-03-22T07:15:09.450Z,46.75
2023-03-22T07:17:50.384Z,46.64
2023-03-22T07:20:20.057Z,46.00
2023-03-22T07:22:50.888Z,45.39
2023-03-22T07:25:21.318Z,44.53
2023-03-22T07:27:54.891Z,46.02
2023-03-22T07:30:23.591Z,46.00
2023-03-22T07:32:52.501Z,44.14
2023-03-22T07:35:21.881Z,43.95
2023-03-22T07:37:50.213Z,44.26
2023-03-22T07:40:24.153Z,43.14
2023-03-22T07:42:55.920Z,43.15
2023-03-22T07:45:50.085Z,43.35
2023-03-22T07:48:36.898Z,44.86
2023-03-22T07:51:24.030Z,43.71
2023-03-22T07:53:53.073Z,42.66
2023-03-22T07:56:21.093Z,40.58
2023-03-22T07:58:49.030Z,42.07
2023-03-22T08:01:17.039Z,40.08
2023-03-22T08:03:55.283Z,40.96
2023-03-22T08:06:36.927Z,39.63
2023-03-22T08:09:08.424Z,38.84
2023-03-22T08:11:36.564Z,37.71
2023-03-22T08:14:04.696Z,41.38
2023-03-22T08:16:35.205Z,40.11
2023-03-22T08:19:05.330Z,39.26
2023-03-22T08:21:38.358Z,39.37
2023-03-22T08:24:10.421Z,41.86
2023-03-22T08:27:17.158Z,42.06
2023-03-22T08:29:48.885Z,42.99
2023-03-22T08:32:18.602Z,42.70
2023-03-22T08:34:46.694Z,42.34
2023-03-22T08:37:16.142Z,41.53
2023-03-22T08:39:46.220Z,40.71
2023-03-22T08:42:22.304Z,41.08
2023-03-22T08:44:51.978Z,40.81
2023-03-22T08:47:22.168Z,40.13
2023-03-22T08:49:54.293Z,38.89
2023-03-22T08:52:36.208Z,42.14
2023-03-22T08:55:12.186Z,37.78
2023-03-22T08:58:06.412Z,40.81
2023-03-22T09:00:49.775Z,39.81
2023-03-22T09:03:25.989Z,38.25
2023-03-22T09:05:54.602Z,39.37
2023-03-22T09:08:24.020Z,39.20
2023-03-22T09:10:58.681Z,40.34
2023-03-22T09:13:26.938Z,39.07
2023-03-22T09:15:59.507Z,39.14
2023-03-22T09:18:31.202Z,37.67
2023-03-22T09:21:02.513Z,37.93
2023-03-22T09:23:40.182Z,38.48
2023-03-22T09:26:11.152Z,37.32
2023-03-22T09:28:39.971Z,37.43
2023-03-22T09:31:11.654Z,38.67
2023-03-22T09:33:42.038Z,39.71
2023-03-22T09:36:12.754Z,37.57
2023-03-22T09:38:42.814Z,38.26
2023-03-22T09:41:17.185Z,38.83
2023-03-22T09:43:50.527Z,37.67
2023-03-22T09:46:28.149Z,37.46
2023-03-22T09:48:57.766Z,38.27
2023-03-22T09:51:38.458Z,38.83
2023-03-22T09:54:13.995Z,37.81
2023-03-22T09:56:42.197Z,38.76
2023-03-22T09:59:17.209Z,37.63
2023-03-22T10:01:49.422Z,37.40
2023-03-22T10:04:50.313Z,39.35
2023-03-22T10:07:28.816Z,37.73
2023-03-22T10:10:08.075Z,38.34
2023-03-22T10:12:43.519Z,38.69
2023-03-22T10:15:16.092Z,37.70
2023-03-22T10:17:47.540Z,37.72
2023-03-22T10:20:24.955Z,36.67
2023-03-22T10:22:55.827Z,37.61
2023-03-22T10:25:32.754Z,35.97
2023-03-22T10:28:00.637Z,37.17
2023-03-22T10:30:33.830Z,35.56
2023-03-22T10:33:03.641Z,36.24
2023-03-22T10:35:32.362Z,36.32
2023-03-22T10:38:03.514Z,34.92
2023-03-22T10:40:35.062Z,36.83
2023-03-22T10:43:09.527Z,35.72
2023-03-22T10:45:38.673Z,33.59
2023-03-22T10:48:12.368Z,33.53
2023-03-22T10:50:44.316Z,33.49
2023-03-22T10:53:18.580Z,33.92
2023-03-22T10:55:47.804Z,35.90
2023-03-22T10:58:17.532Z,35.94
2023-03-22T11:00:47.470Z,35.57
2023-03-22T11:03:29.405Z,35.95
2023-03-22T11:06:06.653Z,33.74
2023-03-22T11:08:46.344Z,34.24
2023-03-22T11:11:21.143Z,34.99
2023-03-22T11:14:01.064Z,32.85
2023-03-22T11:16:31.759Z,34.09
2023-03-22T11:19:07.776Z,34.39
2023-03-22T11:21:41.897Z,32.63
2023-03-22T11:24:15.291Z,34.24
2023-03-22T11:27:03.470Z,34.19
2023-03-22T11:29:41.125Z,34.26
2023-03-22T11:32:22.207Z,34.65
2023-03-22T11:35:00.782Z,34.19
2023-03-22T11:37:28.990Z,32.38
2023-03-22T11:40:05.213Z,33.03
2023-03-22T11:42:36.932Z,31.52
2023-03-22T11:45:05.659Z,32.91
2023-03-22T11:47:39.317Z,32.17
2023-03-22T11:50:10.963Z,31.55
2023-03-22T11:52:38.982Z,32.54
2023-03-22T11:55:07.307Z,31.51
2023-03-22T11:57:38.114Z,31.87
2023-03-22T12:00:14.220Z,31.84
2023-03-22T12:02:48.429Z,30.64
2023-03-22T12:05:24.662Z,31.13
2023-03-22T12:07:57.465Z,30.72
2023-03-22T12:10:29.969Z,31.77
2023-03-22T12:13:04.466Z,32.64
2023-03-22T12:15:36.212Z,31.56
2023-03-22T12:18:09.004Z,31.12
2023-03-22T12:20:43.487Z,31.75
2023-03-22T12:23:16.600Z,31.76
2023-03-22T12:25:50.572Z,30.69
2023-03-22T12:28:24.202Z,30.79
2023-03-22T12:30:56.176Z,31.89
2023-03-22T12:33:28.329Z,30.64
2023-03-22T12:35:59.705Z,30.25
2023-03-22T12:38:37.715Z,30.59
2023-03-22T12:41:10.728Z,29.99
2023-03-22T12:43:50.568Z,30.80
2023-03-22T12:46:23.755Z,31.85
2023-03-22T12:48:57.035Z,31.08
2023-03-22T12:51:25.206Z,31.89
2023-03-22T12:53:56.683Z,30.82
2023-03-22T12:56:27.742Z,31.47
2023-03-22T12:59:01.104Z,31.69
2023-03-22T13:01:38.033Z,31.35
2023-03-22T13:04:32.600Z,31.50
2023-03-22T13:07:11.285Z,31.33
2023-03-22T13:09:42.553Z,31.31
2023-03-22T13:12:34.839Z,31.40
2023-03-22T13:15:31.640Z,30.83
2023-03-22T13:18:23.932Z,30.40
2023-03-22T13:21:14.151Z,30.11
2023-03-22T13:23:57.625Z,30.63
2023-03-22T13:26:34.671Z,31.84
2023-03-22T13:29:10.226Z,31.84
2023-03-22T13:31:43.854Z,31.54
2023-03-22T13:34:19.459Z,31.28
2023-03-22T13:36:56.466Z,30.99
2023-03-22T13:39:27.452Z,31.64
2023-03-22T13:42:10.115Z,31.99
2023-03-22T13:44:41.874Z,31.18
2023-03-22T13:47:32.440Z,31.77
2023-03-22T13:50:06.831Z,31.43
2023-03-22T13:52:40.780Z,31.61
2023-03-22T13:55:37.189Z,32.15
2023-03-22T13:58:05.862Z,31.13
2023-03-22T14:00:45.032Z,31.03
2023-03-22T14:03:27.166Z,31.58
2023-03-22T14:06:05.376Z,32.79
2023-03-22T14:08:35.686Z,32.37
2023-03-22T14:11:08.817Z,33.21
2023-03-22T14:13:43.887Z,34.54
2023-03-22T14:16:18.993Z,33.68
2023-03-22T14:18:50.523Z,34.56
2023-03-22T14:21:33.560Z,34.17
